sensor_id;sensor_type;location;lat;lon;timestamp;P1;durP1;ratioP1;P2;durP2;ratioP2
15398;SDS011;7797;51.428;6.756;2023-04-24T00:01:21;1.00;;;1.00;;
15398;SDS011;7797;51.428;6.756;2023-04-24T00:03:47;1.33;;;0.70;;
15398;SDS011;7797;51.428;6.756;2023-04-24T00:06:14;0.80;;;0.80;;
15398;SDS011;7797;51.428;6.756;2023-04-24T00:08:43;1.70;;;1.50;;
15398;SDS011;7797;51.428;6.756;2023-04-24T00:11:10;1.33;;;1.17;;
15398;SDS011;7797;51.428;6.756;2023-04-24T00:13:37;1.37;;;1.27;;
15398;SDS011;7797;51.428;6.756;2023-04-24T00:16:04;1.80;;;1.70;;
15398;SDS011;7797;51.428;6.756;2023-04-24T00:18:31;1.30;;;1.30;;
15398;SDS011;7797;51.428;6.756;2023-04-24T00:20:58;1.73;;;1.63;;
15398;SDS011;7797;51.428;6.756;2023-04-24T00:23:25;1.90;;;1.50;;
15398;SDS011;7797;51.428;6.756;2023-04-24T00:25:51;1.20;;;1.20;;
15398;SDS011;7797;51.428;6.756;2023-04-24T00:28:18;1.47;;;1.37;;
15398;SDS011;7797;51.428;6.756;2023-04-24T00:30:45;1.00;;;1.00;;
15398;SDS011;7797;51.428;6.756;2023-04-24T00:33:12;1.33;;;1.30;;
15398;SDS011;7797;51.428;6.756;2023-04-24T00:35:38;1.37;;;1.10;;
15398;SDS011;7797;51.428;6.756;2023-04-24T00:38:06;1.87;;;1.73;;
15398;SDS011;7797;51.428;6.756;2023-04-24T00:40:33;2.30;;;1.83;;
15398;SDS011;7797;51.428;6.756;2023-04-24T00:43:00;2.40;;;2.30;;
15398;SDS011;7797;51.428;6.756;2023-04-24T00:45:27;2.70;;;2.50;;
15398;SDS011;7797;51.428;6.756;2023-04-24T00:47:54;3.10;;;2.80;;
15398;SDS011;7797;51.428;6.756;2023-04-24T00:50:21;3.43;;;3.03;;
15398;SDS011;7797;51.428;6.756;2023-04-24T00:52:48;3.23;;;2.93;;
15398;SDS011;7797;51.428;6.756;2023-04-24T00:55:15;3.53;;;2.73;;
15398;SDS011;7797;51.428;6.756;2023-04-24T00:57:42;3.03;;;2.73;;
15398;SDS011;7797;51.428;6.756;2023-04-24T01:00:10;2.90;;;2.70;;
15398;SDS011;7797;51.428;6.756;2023-04-24T01:02:41;3.23;;;2.50;;
15398;SDS011;7797;51.428;6.756;2023-04-24T01:05:13;2.90;;;2.70;;
15398;SDS011;7797;51.428;6.756;2023-04-24T01:07:41;3.50;;;3.20;;
15398;SDS011;7797;51.428;6.756;2023-04-24T01:10:12;2.97;;;2.77;;
15398;SDS011;7797;51.428;6.756;2023-04-24T01:12:40;2.90;;;2.60;;
15398;SDS011;7797;51.428;6.756;2023-04-24T01:15:07;5.50;;;3.60;;
15398;SDS011;7797;51.428;6.756;2023-04-24T01:17:34;3.93;;;3.07;;
15398;SDS011;7797;51.428;6.756;2023-04-24T01:20:02;3.50;;;3.20;;
15398;SDS011;7797;51.428;6.756;2023-04-24T01:22:33;3.23;;;3.03;;
15398;SDS011;7797;51.428;6.756;2023-04-24T01:25:01;3.80;;;3.50;;
15398;SDS011;7797;51.428;6.756;2023-04-24T01:27:28;3.90;;;3.40;;
15398;SDS011;7797;51.428;6.756;2023-04-24T01:29:54;4.47;;;3.57;;
15398;SDS011;7797;51.428;6.756;2023-04-24T01:32:21;4.47;;;4.07;;
15398;SDS011;7797;51.428;6.756;2023-04-24T01:34:48;3.93;;;3.63;;
15398;SDS011;7797;51.428;6.756;2023-04-24T01:37:15;4.60;;;4.20;;
15398;SDS011;7797;51.428;6.756;2023-04-24T01:39:43;5.40;;;4.10;;
15398;SDS011;7797;51.428;6.756;2023-04-24T01:42:10;4.13;;;3.53;;
15398;SDS011;7797;51.428;6.756;2023-04-24T01:44:38;4.13;;;3.63;;
15398;SDS011;7797;51.428;6.756;2023-04-24T01:47:05;5.43;;;3.70;;
15398;SDS011;7797;51.428;6.756;2023-04-24T01:49:32;4.53;;;3.70;;
15398;SDS011;7797;51.428;6.756;2023-04-24T01:51:59;3.90;;;3.50;;
15398;SDS011;7797;51.428;6.756;2023-04-24T01:54:25;5.10;;;4.10;;
15398;SDS011;7797;51.428;6.756;2023-04-24T01:56:52;5.20;;;4.00;;
15398;SDS011;7797;51.428;6.756;2023-04-24T01:59:19;4.13;;;3.80;;
15398;SDS011;7797;51.428;6.756;2023-04-24T02:01:47;5.00;;;3.93;;
15398;SDS011;7797;51.428;6.756;2023-04-24T02:04:14;5.00;;;4.50;;
15398;SDS011;7797;51.428;6.756;2023-04-24T02:06:41;6.47;;;4.70;;
15398;SDS011;7797;51.428;6.756;2023-04-24T02:09:08;5.10;;;4.60;;
15398;SDS011;7797;51.428;6.756;2023-04-24T02:11:35;7.83;;;5.10;;
15398;SDS011;7797;51.428;6.756;2023-04-24T02:14:02;6.90;;;4.90;;
15398;SDS011;7797;51.428;6.756;2023-04-24T02:16:28;6.23;;;5.63;;
15398;SDS011;7797;51.428;6.756;2023-04-24T02:19:02;6.40;;;5.77;;
15398;SDS011;7797;51.428;6.756;2023-04-24T02:21:29;7.40;;;5.60;;
15398;SDS011;7797;51.428;6.756;2023-04-24T02:23:57;8.33;;;5.57;;
15398;SDS011;7797;51.428;6.756;2023-04-24T02:26:24;8.27;;;5.93;;
15398;SDS011;7797;51.428;6.756;2023-04-24T02:28:51;8.70;;;6.03;;
15398;SDS011;7797;51.428;6.756;2023-04-24T02:31:18;7.50;;;6.50;;
15398;SDS011;7797;51.428;6.756;2023-04-24T02:33:44;7.40;;;6.20;;
15398;SDS011;7797;51.428;6.756;2023-04-24T02:36:11;10.17;;;6.33;;
15398;SDS011;7797;51.428;6.756;2023-04-24T02:38:39;7.67;;;6.40;;
15398;SDS011;7797;51.428;6.756;2023-04-24T02:41:06;9.27;;;6.47;;
15398;SDS011;7797;51.428;6.756;2023-04-24T02:43:33;9.33;;;6.70;;
15398;SDS011;7797;51.428;6.756;2023-04-24T02:45:59;10.40;;;6.87;;
15398;SDS011;7797;51.428;6.756;2023-04-24T02:48:26;14.67;;;7.60;;
15398;SDS011;7797;51.428;6.756;2023-04-24T02:50:53;10.17;;;7.20;;
15398;SDS011;7797;51.428;6.756;2023-04-24T02:53:20;10.27;;;6.93;;
15398;SDS011;7797;51.428;6.756;2023-04-24T02:55:47;9.37;;;7.10;;
15398;SDS011;7797;51.428;6.756;2023-04-24T02:58:14;11.50;;;7.50;;
15398;SDS011;7797;51.428;6.756;2023-04-24T03:00:42;10.30;;;7.57;;
15398;SDS011;7797;51.428;6.756;2023-04-24T03:03:09;9.50;;;7.23;;
15398;SDS011;7797;51.428;6.756;2023-04-24T03:05:36;9.43;;;7.37;;
15398;SDS011;7797;51.428;6.756;2023-04-24T03:08:03;8.53;;;6.60;;
15398;SDS011;7797;51.428;6.756;2023-04-24T03:10:30;9.87;;;7.70;;
15398;SDS011;7797;51.428;6.756;2023-04-24T03:12:58;9.10;;;8.10;;
15398;SDS011;7797;51.428;6.756;2023-04-24T03:15:25;11.70;;;8.33;;
15398;SDS011;7797;51.428;6.756;2023-04-24T03:17:53;12.97;;;8.60;;
15398;SDS011;7797;51.428;6.756;2023-04-24T03:20:22;9.50;;;7.30;;
15398;SDS011;7797;51.428;6.756;2023-04-24T03:22:48;9.50;;;7.83;;
15398;SDS011;7797;51.428;6.756;2023-04-24T03:25:15;10.80;;;8.13;;
15398;SDS011;7797;51.428;6.756;2023-04-24T03:27:42;11.43;;;8.00;;
15398;SDS011;7797;51.428;6.756;2023-04-24T03:30:09;10.13;;;7.40;;
15398;SDS011;7797;51.428;6.756;2023-04-24T03:32:36;11.50;;;7.77;;
15398;SDS011;7797;51.428;6.756;2023-04-24T03:35:06;14.13;;;8.13;;
15398;SDS011;7797;51.428;6.756;2023-04-24T03:37:34;12.90;;;7.90;;
15398;SDS011;7797;51.428;6.756;2023-04-24T03:40:01;10.20;;;8.27;;
15398;SDS011;7797;51.428;6.756;2023-04-24T03:42:28;11.27;;;8.00;;
15398;SDS011;7797;51.428;6.756;2023-04-24T03:44:55;11.30;;;8.50;;
15398;SDS011;7797;51.428;6.756;2023-04-24T03:47:22;11.10;;;7.93;;
15398;SDS011;7797;51.428;6.756;2023-04-24T03:49:49;11.90;;;7.87;;
15398;SDS011;7797;51.428;6.756;2023-04-24T03:52:16;11.13;;;8.37;;
15398;SDS011;7797;51.428;6.756;2023-04-24T03:54:43;8.87;;;7.30;;
15398;SDS011;7797;51.428;6.756;2023-04-24T03:57:09;9.43;;;7.90;;
15398;SDS011;7797;51.428;6.756;2023-04-24T03:59:36;10.87;;;7.47;;
15398;SDS011;7797;51.428;6.756;2023-04-24T04:02:03;10.20;;;7.23;;
15398;SDS011;7797;51.428;6.756;2023-04-24T04:04:30;8.93;;;7.37;;
15398;SDS011;7797;51.428;6.756;2023-04-24T04:06:57;9.60;;;7.77;;
15398;SDS011;7797;51.428;6.756;2023-04-24T04:09:27;8.80;;;8.00;;
15398;SDS011;7797;51.428;6.756;2023-04-24T04:11:54;12.33;;;7.70;;
15398;SDS011;7797;51.428;6.756;2023-04-24T04:14:21;12.97;;;8.23;;
15398;SDS011;7797;51.428;6.756;2023-04-24T04:16:48;9.20;;;7.73;;
15398;SDS011;7797;51.428;6.756;2023-04-24T04:19:19;11.30;;;7.90;;
15398;SDS011;7797;51.428;6.756;2023-04-24T04:21:52;10.60;;;8.37;;
15398;SDS011;7797;51.428;6.756;2023-04-24T04:24:22;10.73;;;7.60;;
15398;SDS011;7797;51.428;6.756;2023-04-24T04:26:50;12.87;;;8.13;;
15398;SDS011;7797;51.428;6.756;2023-04-24T04:29:18;11.73;;;8.50;;
15398;SDS011;7797;51.428;6.756;2023-04-24T04:31:45;12.77;;;7.63;;
15398;SDS011;7797;51.428;6.756;2023-04-24T04:34:12;11.77;;;7.60;;
15398;SDS011;7797;51.428;6.756;2023-04-24T04:36:40;8.47;;;7.10;;
15398;SDS011;7797;51.428;6.756;2023-04-24T04:39:07;10.73;;;7.83;;
15398;SDS011;7797;51.428;6.756;2023-04-24T04:41:34;10.70;;;7.90;;
15398;SDS011;7797;51.428;6.756;2023-04-24T04:44:01;8.90;;;7.80;;
15398;SDS011;7797;51.428;6.756;2023-04-24T04:46:31;10.10;;;7.90;;
15398;SDS011;7797;51.428;6.756;2023-04-24T04:49:02;8.90;;;7.00;;
15398;SDS011;7797;51.428;6.756;2023-04-24T04:51:29;9.90;;;7.50;;
15398;SDS011;7797;51.428;6.756;2023-04-24T04:53:57;8.73;;;6.80;;
15398;SDS011;7797;51.428;6.756;2023-04-24T04:56:24;8.97;;;7.23;;
15398;SDS011;7797;51.428;6.756;2023-04-24T04:58:51;6.93;;;6.03;;
15398;SDS011;7797;51.428;6.756;2023-04-24T05:01:17;7.30;;;6.60;;
15398;SDS011;7797;51.428;6.756;2023-04-24T05:03:44;9.03;;;6.97;;
15398;SDS011;7797;51.428;6.756;2023-04-24T05:06:11;9.13;;;6.60;;
15398;SDS011;7797;51.428;6.756;2023-04-24T05:08:38;6.90;;;5.80;;
15398;SDS011;7797;51.428;6.756;2023-04-24T05:11:05;7.63;;;6.13;;
15398;SDS011;7797;51.428;6.756;2023-04-24T05:13:32;8.73;;;6.83;;
15398;SDS011;7797;51.428;6.756;2023-04-24T05:16:06;6.70;;;6.00;;
15398;SDS011;7797;51.428;6.756;2023-04-24T05:18:33;7.10;;;6.23;;
15398;SDS011;7797;51.428;6.756;2023-04-24T05:21:00;7.20;;;6.17;;
15398;SDS011;7797;51.428;6.756;2023-04-24T05:23:27;7.60;;;6.60;;
15398;SDS011;7797;51.428;6.756;2023-04-24T05:25:54;8.43;;;7.00;;
15398;SDS011;7797;51.428;6.756;2023-04-24T05:28:21;7.93;;;6.80;;
15398;SDS011;7797;51.428;6.756;2023-04-24T05:30:47;7.77;;;7.00;;
15398;SDS011;7797;51.428;6.756;2023-04-24T05:33:14;9.30;;;6.90;;
15398;SDS011;7797;51.428;6.756;2023-04-24T05:35:41;8.63;;;7.00;;
15398;SDS011;7797;51.428;6.756;2023-04-24T05:38:13;8.70;;;7.37;;
15398;SDS011;7797;51.428;6.756;2023-04-24T05:40:40;10.10;;;7.47;;
15398;SDS011;7797;51.428;6.756;2023-04-24T05:43:07;8.73;;;7.73;;
15398;SDS011;7797;51.428;6.756;2023-04-24T05:45:33;8.90;;;6.93;;
15398;SDS011;7797;51.428;6.756;2023-04-24T05:48:02;9.13;;;7.67;;
15398;SDS011;7797;51.428;6.756;2023-04-24T05:50:32;7.93;;;7.13;;
15398;SDS011;7797;51.428;6.756;2023-04-24T05:53:02;6.53;;;5.93;;
15398;SDS011;7797;51.428;6.756;2023-04-24T05:55:30;7.43;;;6.73;;
15398;SDS011;7797;51.428;6.756;2023-04-24T05:57:57;8.93;;;6.87;;
15398;SDS011;7797;51.428;6.756;2023-04-24T06:00:24;8.37;;;6.73;;
15398;SDS011;7797;51.428;6.756;2023-04-24T06:02:52;7.87;;;6.73;;
15398;SDS011;7797;51.428;6.756;2023-04-24T06:05:22;7.53;;;6.77;;
15398;SDS011;7797;51.428;6.756;2023-04-24T06:07:49;9.20;;;6.87;;
15398;SDS011;7797;51.428;6.756;2023-04-24T06:10:15;11.27;;;7.07;;
15398;SDS011;7797;51.428;6.756;2023-04-24T06:12:42;10.47;;;6.33;;
15398;SDS011;7797;51.428;6.756;2023-04-24T06:15:09;7.20;;;5.90;;
15398;SDS011;7797;51.428;6.756;2023-04-24T06:17:36;6.80;;;6.00;;
15398;SDS011;7797;51.428;6.756;2023-04-24T06:20:04;7.57;;;6.73;;
15398;SDS011;7797;51.428;6.756;2023-04-24T06:22:32;7.90;;;7.07;;
15398;SDS011;7797;51.428;6.756;2023-04-24T06:24:59;8.83;;;7.07;;
15398;SDS011;7797;51.428;6.756;2023-04-24T06:27:27;9.70;;;7.27;;
15398;SDS011;7797;51.428;6.756;2023-04-24T06:29:53;10.83;;;8.37;;
15398;SDS011;7797;51.428;6.756;2023-04-24T06:32:22;10.43;;;7.07;;
15398;SDS011;7797;51.428;6.756;2023-04-24T06:34:53;9.37;;;7.73;;
15398;SDS011;7797;51.428;6.756;2023-04-24T06:37:20;8.47;;;7.27;;
15398;SDS011;7797;51.428;6.756;2023-04-24T06:39:47;7.00;;;6.30;;
15398;SDS011;7797;51.428;6.756;2023-04-24T06:42:13;7.87;;;6.10;;
15398;SDS011;7797;51.428;6.756;2023-04-24T06:44:40;8.23;;;6.40;;
15398;SDS011;7797;51.428;6.756;2023-04-24T06:47:08;5.10;;;4.60;;
15398;SDS011;7797;51.428;6.756;2023-04-24T06:49:35;5.80;;;5.30;;
15398;SDS011;7797;51.428;6.756;2023-04-24T06:52:03;5.90;;;5.00;;
15398;SDS011;7797;51.428;6.756;2023-04-24T06:54:30;5.23;;;4.80;;
15398;SDS011;7797;51.428;6.756;2023-04-24T06:56:57;5.97;;;4.60;;
15398;SDS011;7797;51.428;6.756;2023-04-24T06:59:24;4.50;;;4.10;;
15398;SDS011;7797;51.428;6.756;2023-04-24T07:01:51;4.17;;;3.77;;
15398;SDS011;7797;51.428;6.756;2023-04-24T07:04:20;4.60;;;4.00;;
15398;SDS011;7797;51.428;6.756;2023-04-24T07:06:48;4.00;;;3.70;;
15398;SDS011;7797;51.428;6.756;2023-04-24T07:09:20;4.83;;;3.70;;
15398;SDS011;7797;51.428;6.756;2023-04-24T07:11:48;4.57;;;4.07;;
15398;SDS011;7797;51.428;6.756;2023-04-24T07:14:15;3.83;;;3.13;;
15398;SDS011;7797;51.428;6.756;2023-04-24T07:16:42;3.10;;;2.67;;
15398;SDS011;7797;51.428;6.756;2023-04-24T07:19:09;2.20;;;2.10;;
15398;SDS011;7797;51.428;6.756;2023-04-24T07:21:36;2.00;;;1.80;;
15398;SDS011;7797;51.428;6.756;2023-04-24T07:24:03;2.30;;;2.10;;
15398;SDS011;7797;51.428;6.756;2023-04-24T07:26:30;2.83;;;2.20;;
15398;SDS011;7797;51.428;6.756;2023-04-24T07:28:57;2.57;;;2.37;;
15398;SDS011;7797;51.428;6.756;2023-04-24T07:31:24;2.67;;;2.50;;
15398;SDS011;7797;51.428;6.756;2023-04-24T07:33:51;2.40;;;2.20;;
15398;SDS011;7797;51.428;6.756;2023-04-24T07:36:17;2.43;;;2.20;;
15398;SDS011;7797;51.428;6.756;2023-04-24T07:38:45;2.30;;;2.20;;
15398;SDS011;7797;51.428;6.756;2023-04-24T07:41:12;3.53;;;3.10;;
15398;SDS011;7797;51.428;6.756;2023-04-24T07:43:40;2.67;;;2.47;;
15398;SDS011;7797;51.428;6.756;2023-04-24T07:46:10;2.00;;;1.90;;
15398;SDS011;7797;51.428;6.756;2023-04-24T07:48:37;2.10;;;1.90;;
15398;SDS011;7797;51.428;6.756;2023-04-24T07:51:04;1.50;;;1.50;;
15398;SDS011;7797;51.428;6.756;2023-04-24T07:53:31;2.00;;;1.90;;
15398;SDS011;7797;51.428;6.756;2023-04-24T07:55:57;2.40;;;2.20;;
15398;SDS011;7797;51.428;6.756;2023-04-24T07:58:25;3.93;;;2.53;;
15398;SDS011;7797;51.428;6.756;2023-04-24T08:00:51;2.30;;;2.10;;
15398;SDS011;7797;51.428;6.756;2023-04-24T08:03:18;2.47;;;2.17;;
15398;SDS011;7797;51.428;6.756;2023-04-24T08:05:46;2.43;;;2.07;;
15398;SDS011;7797;51.428;6.756;2023-04-24T08:08:13;2.23;;;2.10;;
15398;SDS011;7797;51.428;6.756;2023-04-24T08:10:40;2.37;;;2.27;;
15398;SDS011;7797;51.428;6.756;2023-04-24T08:13:07;2.20;;;2.10;;
15398;SDS011;7797;51.428;6.756;2023-04-24T08:15:34;2.77;;;2.57;;
15398;SDS011;7797;51.428;6.756;2023-04-24T08:18:01;2.20;;;2.00;;
15398;SDS011;7797;51.428;6.756;2023-04-24T08:20:28;2.07;;;1.97;;
15398;SDS011;7797;51.428;6.756;2023-04-24T08:22:54;2.50;;;2.30;;
15398;SDS011;7797;51.428;6.756;2023-04-24T08:25:23;2.03;;;1.90;;
15398;SDS011;7797;51.428;6.756;2023-04-24T08:27:53;1.90;;;1.70;;
15398;SDS011;7797;51.428;6.756;2023-04-24T08:30:20;2.30;;;1.70;;
15398;SDS011;7797;51.428;6.756;2023-04-24T08:32:47;1.30;;;1.20;;
15398;SDS011;7797;51.428;6.756;2023-04-24T08:35:19;1.27;;;1.23;;
15398;SDS011;7797;51.428;6.756;2023-04-24T08:37:46;2.93;;;1.60;;
15398;SDS011;7797;51.428;6.756;2023-04-24T08:40:14;1.37;;;1.27;;
15398;SDS011;7797;51.428;6.756;2023-04-24T08:42:42;1.17;;;1.17;;
15398;SDS011;7797;51.428;6.756;2023-04-24T08:45:11;2.40;;;1.20;;
15398;SDS011;7797;51.428;6.756;2023-04-24T08:47:39;1.97;;;1.27;;
15398;SDS011;7797;51.428;6.756;2023-04-24T08:50:07;3.70;;;1.80;;
15398;SDS011;7797;51.428;6.756;2023-04-24T08:52:35;1.50;;;1.40;;
15398;SDS011;7797;51.428;6.756;2023-04-24T08:55:02;2.93;;;1.53;;
15398;SDS011;7797;51.428;6.756;2023-04-24T08:57:29;2.10;;;1.50;;
15398;SDS011;7797;51.428;6.756;2023-04-24T08:59:57;2.27;;;2.07;;
15398;SDS011;7797;51.428;6.756;2023-04-24T09:02:25;3.00;;;2.70;;
15398;SDS011;7797;51.428;6.756;2023-04-24T09:04:52;3.40;;;3.10;;
15398;SDS011;7797;51.428;6.756;2023-04-24T09:07:19;5.23;;;4.20;;
15398;SDS011;7797;51.428;6.756;2023-04-24T09:09:46;4.40;;;4.00;;
15398;SDS011;7797;51.428;6.756;2023-04-24T09:12:13;4.90;;;4.50;;
15398;SDS011;7797;51.428;6.756;2023-04-24T09:14:40;5.73;;;5.13;;
15398;SDS011;7797;51.428;6.756;2023-04-24T09:17:11;5.63;;;4.40;;
15398;SDS011;7797;51.428;6.756;2023-04-24T09:19:39;5.40;;;4.90;;
15398;SDS011;7797;51.428;6.756;2023-04-24T09:22:07;4.60;;;4.20;;
15398;SDS011;7797;51.428;6.756;2023-04-24T09:24:34;4.97;;;3.90;;
15398;SDS011;7797;51.428;6.756;2023-04-24T09:27:01;5.63;;;4.50;;
15398;SDS011;7797;51.428;6.756;2023-04-24T09:29:28;4.50;;;4.10;;
15398;SDS011;7797;51.428;6.756;2023-04-24T09:31:55;3.73;;;3.47;;
15398;SDS011;7797;51.428;6.756;2023-04-24T09:34:23;4.50;;;3.53;;
15398;SDS011;7797;51.428;6.756;2023-04-24T09:37:06;4.63;;;3.40;;
15398;SDS011;7797;51.428;6.756;2023-04-24T09:39:42;6.80;;;4.47;;
15398;SDS011;7797;51.428;6.756;2023-04-24T09:42:09;6.60;;;4.23;;
15398;SDS011;7797;51.428;6.756;2023-04-24T09:44:36;5.87;;;4.17;;
15398;SDS011;7797;51.428;6.756;2023-04-24T09:47:03;4.90;;;4.10;;
15398;SDS011;7797;51.428;6.756;2023-04-24T09:49:35;5.37;;;4.13;;
15398;SDS011;7797;51.428;6.756;2023-04-24T09:52:10;5.60;;;4.00;;
15398;SDS011;7797;51.428;6.756;2023-04-24T09:54:38;4.70;;;4.30;;
15398;SDS011;7797;51.428;6.756;2023-04-24T09:57:09;7.17;;;4.63;;
15398;SDS011;7797;51.428;6.756;2023-04-24T09:59:38;5.97;;;4.57;;
15398;SDS011;7797;51.428;6.756;2023-04-24T10:02:16;6.93;;;4.23;;
15398;SDS011;7797;51.428;6.756;2023-04-24T10:04:53;5.87;;;4.10;;
15398;SDS011;7797;51.428;6.756;2023-04-24T10:07:22;5.57;;;4.30;;
15398;SDS011;7797;51.428;6.756;2023-04-24T10:09:52;7.00;;;4.70;;
15398;SDS011;7797;51.428;6.756;2023-04-24T10:12:19;6.93;;;4.50;;
15398;SDS011;7797;51.428;6.756;2023-04-24T10:14:46;5.43;;;3.80;;
15398;SDS011;7797;51.428;6.756;2023-04-24T10:17:13;3.97;;;3.50;;
15398;SDS011;7797;51.428;6.756;2023-04-24T10:19:41;5.67;;;3.87;;
15398;SDS011;7797;51.428;6.756;2023-04-24T10:22:09;5.60;;;3.60;;
15398;SDS011;7797;51.428;6.756;2023-04-24T10:24:43;7.87;;;3.90;;
15398;SDS011;7797;51.428;6.756;2023-04-24T10:27:10;6.40;;;3.50;;
15398;SDS011;7797;51.428;6.756;2023-04-24T10:29:37;6.20;;;3.53;;
15398;SDS011;7797;51.428;6.756;2023-04-24T10:32:06;7.73;;;3.50;;
15398;SDS011;7797;51.428;6.756;2023-04-24T10:34:33;4.80;;;3.63;;
15398;SDS011;7797;51.428;6.756;2023-04-24T10:37:00;9.73;;;4.60;;
15398;SDS011;7797;51.428;6.756;2023-04-24T10:39:28;6.10;;;3.80;;
15398;SDS011;7797;51.428;6.756;2023-04-24T10:41:55;7.43;;;3.50;;
15398;SDS011;7797;51.428;6.756;2023-04-24T10:44:24;6.83;;;3.53;;
15398;SDS011;7797;51.428;6.756;2023-04-24T10:46:55;7.13;;;3.70;;
15398;SDS011;7797;51.428;6.756;2023-04-24T10:49:29;10.80;;;3.40;;
15398;SDS011;7797;51.428;6.756;2023-04-24T10:52:00;9.97;;;3.70;;
15398;SDS011;7797;51.428;6.756;2023-04-24T10:54:35;7.17;;;3.70;;
15398;SDS011;7797;51.428;6.756;2023-04-24T10:59:49;4.80;;;3.17;;
15398;SDS011;7797;51.428;6.756;2023-04-24T11:02:17;7.97;;;3.70;;
15398;SDS011;7797;51.428;6.756;2023-04-24T11:04:45;10.03;;;4.20;;
15398;SDS011;7797;51.428;6.756;2023-04-24T11:07:12;7.30;;;4.07;;
15398;SDS011;7797;51.428;6.756;2023-04-24T11:09:39;8.57;;;4.13;;
15398;SDS011;7797;51.428;6.756;2023-04-24T11:12:10;7.33;;;3.93;;
15398;SDS011;7797;51.428;6.756;2023-04-24T11:17:37;8.33;;;3.80;;
15398;SDS011;7797;51.428;6.756;2023-04-24T11:22:52;6.63;;;3.60;;
15398;SDS011;7797;51.428;6.756;2023-04-24T11:25:21;5.23;;;2.93;;
15398;SDS011;7797;51.428;6.756;2023-04-24T11:27:52;8.53;;;3.00;;
15398;SDS011;7797;51.428;6.756;2023-04-24T11:30:29;8.37;;;3.87;;
15398;SDS011;7797;51.428;6.756;2023-04-24T11:33:01;5.93;;;3.37;;
15398;SDS011;7797;51.428;6.756;2023-04-24T11:35:29;7.60;;;3.10;;
15398;SDS011;7797;51.428;6.756;2023-04-24T11:37:56;5.23;;;2.50;;
15398;SDS011;7797;51.428;6.756;2023-04-24T11:40:27;5.57;;;2.80;;
15398;SDS011;7797;51.428;6.756;2023-04-24T11:42:54;3.77;;;2.60;;
15398;SDS011;7797;51.428;6.756;2023-04-24T11:45:26;7.27;;;2.70;;
15398;SDS011;7797;51.428;6.756;2023-04-24T11:47:57;6.30;;;2.50;;
15398;SDS011;7797;51.428;6.756;2023-04-24T11:50:25;7.07;;;2.67;;
15398;SDS011;7797;51.428;6.756;2023-04-24T11:52:54;8.20;;;2.93;;
15398;SDS011;7797;51.428;6.756;2023-04-24T11:55:22;6.50;;;2.70;;
15398;SDS011;7797;51.428;6.756;2023-04-24T11:57:53;5.67;;;3.07;;
15398;SDS011;7797;51.428;6.756;2023-04-24T12:00:25;6.93;;;3.20;;
15398;SDS011;7797;51.428;6.756;2023-04-24T12:05:33;4.50;;;3.20;;
15398;SDS011;7797;51.428;6.756;2023-04-24T12:08:01;7.17;;;3.50;;
15398;SDS011;7797;51.428;6.756;2023-04-24T12:10:28;8.90;;;3.33;;
15398;SDS011;7797;51.428;6.756;2023-04-24T12:12:57;6.80;;;3.23;;
15398;SDS011;7797;51.428;6.756;2023-04-24T12:15:24;7.33;;;3.13;;
15398;SDS011;7797;51.428;6.756;2023-04-24T12:17:52;5.40;;;3.20;;
15398;SDS011;7797;51.428;6.756;2023-04-24T12:20:26;5.00;;;3.00;;
15398;SDS011;7797;51.428;6.756;2023-04-24T12:22:56;6.53;;;3.27;;
15398;SDS011;7797;51.428;6.756;2023-04-24T12:25:28;3.67;;;2.50;;
15398;SDS011;7797;51.428;6.756;2023-04-24T12:30:38;5.13;;;2.50;;
15398;SDS011;7797;51.428;6.756;2023-04-24T12:33:07;3.23;;;2.03;;
15398;SDS011;7797;51.428;6.756;2023-04-24T12:35:33;3.60;;;2.03;;
15398;SDS011;7797;51.428;6.756;2023-04-24T12:38:05;2.87;;;2.07;;
15398;SDS011;7797;51.428;6.756;2023-04-24T12:40:34;2.13;;;1.93;;
15398;SDS011;7797;51.428;6.756;2023-04-24T12:43:01;2.73;;;2.00;;
15398;SDS011;7797;51.428;6.756;2023-04-24T12:45:28;3.43;;;1.87;;
15398;SDS011;7797;51.428;6.756;2023-04-24T12:47:55;1.70;;;1.60;;
15398;SDS011;7797;51.428;6.756;2023-04-24T12:50:22;7.17;;;3.00;;
15398;SDS011;7797;51.428;6.756;2023-04-24T12:52:49;14.47;;;6.53;;
15398;SDS011;7797;51.428;6.756;2023-04-24T12:55:15;3.40;;;2.20;;
15398;SDS011;7797;51.428;6.756;2023-04-24T12:57:42;1.87;;;1.77;;
15398;SDS011;7797;51.428;6.756;2023-04-24T13:00:09;3.23;;;1.37;;
15398;SDS011;7797;51.428;6.756;2023-04-24T13:02:36;1.93;;;1.60;;
15398;SDS011;7797;51.428;6.756;2023-04-24T13:05:03;3.93;;;1.50;;
15398;SDS011;7797;51.428;6.756;2023-04-24T13:07:30;2.73;;;1.40;;
15398;SDS011;7797;51.428;6.756;2023-04-24T13:09:57;3.77;;;1.70;;
15398;SDS011;7797;51.428;6.756;2023-04-24T13:12:24;13.10;;;4.30;;
15398;SDS011;7797;51.428;6.756;2023-04-24T13:14:52;11.63;;;3.17;;
15398;SDS011;7797;51.428;6.756;2023-04-24T13:17:19;8.00;;;3.40;;
15398;SDS011;7797;51.428;6.756;2023-04-24T13:19:46;5.47;;;2.60;;
15398;SDS011;7797;51.428;6.756;2023-04-24T13:22:13;5.00;;;2.53;;
15398;SDS011;7797;51.428;6.756;2023-04-24T13:24:39;3.83;;;1.70;;
15398;SDS011;7797;51.428;6.756;2023-04-24T13:27:08;1.50;;;1.37;;
15398;SDS011;7797;51.428;6.756;2023-04-24T13:29:35;2.10;;;1.27;;
15398;SDS011;7797;51.428;6.756;2023-04-24T13:32:03;1.80;;;1.20;;
15398;SDS011;7797;51.428;6.756;2023-04-24T13:34:29;2.50;;;1.23;;
15398;SDS011;7797;51.428;6.756;2023-04-24T13:36:56;2.50;;;1.30;;
15398;SDS011;7797;51.428;6.756;2023-04-24T13:39:24;1.80;;;1.50;;
15398;SDS011;7797;51.428;6.756;2023-04-24T13:41:53;2.50;;;1.50;;
15398;SDS011;7797;51.428;6.756;2023-04-24T13:44:20;4.07;;;1.33;;
15398;SDS011;7797;51.428;6.756;2023-04-24T13:46:48;4.57;;;2.10;;
15398;SDS011;7797;51.428;6.756;2023-04-24T13:49:16;1.27;;;1.13;;
15398;SDS011;7797;51.428;6.756;2023-04-24T13:51:45;2.13;;;1.50;;
15398;SDS011;7797;51.428;6.756;2023-04-24T13:54:12;5.10;;;1.60;;
15398;SDS011;7797;51.428;6.756;2023-04-24T13:56:39;1.50;;;1.40;;
15398;SDS011;7797;51.428;6.756;2023-04-24T13:59:07;5.53;;;1.70;;
15398;SDS011;7797;51.428;6.756;2023-04-24T14:01:34;4.27;;;2.10;;
15398;SDS011;7797;51.428;6.756;2023-04-24T14:04:01;6.17;;;2.30;;
15398;SDS011;7797;51.428;6.756;2023-04-24T14:06:28;4.50;;;1.90;;
15398;SDS011;7797;51.428;6.756;2023-04-24T14:08:55;2.03;;;1.37;;
15398;SDS011;7797;51.428;6.756;2023-04-24T14:11:22;1.73;;;1.40;;
15398;SDS011;7797;51.428;6.756;2023-04-24T14:13:49;1.97;;;1.60;;
15398;SDS011;7797;51.428;6.756;2023-04-24T14:16:16;1.83;;;1.40;;
15398;SDS011;7797;51.428;6.756;2023-04-24T14:18:43;2.10;;;1.90;;
15398;SDS011;7797;51.428;6.756;2023-04-24T14:21:10;1.60;;;1.33;;
15398;SDS011;7797;51.428;6.756;2023-04-24T14:23:36;1.40;;;1.30;;
15398;SDS011;7797;51.428;6.756;2023-04-24T14:26:03;1.80;;;1.30;;
15398;SDS011;7797;51.428;6.756;2023-04-24T14:28:30;4.03;;;1.60;;
15398;SDS011;7797;51.428;6.756;2023-04-24T14:30:57;1.37;;;1.27;;
15398;SDS011;7797;51.428;6.756;2023-04-24T14:33:24;2.73;;;1.20;;
15398;SDS011;7797;51.428;6.756;2023-04-24T14:35:51;0.97;;;0.97;;
15398;SDS011;7797;51.428;6.756;2023-04-24T14:38:17;1.20;;;1.20;;
15398;SDS011;7797;51.428;6.756;2023-04-24T14:40:44;2.87;;;1.50;;
15398;SDS011;7797;51.428;6.756;2023-04-24T14:43:31;1.47;;;1.10;;
15398;SDS011;7797;51.428;6.756;2023-04-24T14:45:58;1.80;;;1.30;;
15398;SDS011;7797;51.428;6.756;2023-04-24T14:48:28;1.53;;;1.20;;
15398;SDS011;7797;51.428;6.756;2023-04-24T14:50:55;1.60;;;1.50;;
15398;SDS011;7797;51.428;6.756;2023-04-24T14:53:22;1.60;;;1.50;;
15398;SDS011;7797;51.428;6.756;2023-04-24T14:55:49;3.20;;;1.90;;
15398;SDS011;7797;51.428;6.756;2023-04-24T14:58:15;4.93;;;1.80;;
15398;SDS011;7797;51.428;6.756;2023-04-24T15:00:42;1.83;;;1.63;;
15398;SDS011;7797;51.428;6.756;2023-04-24T15:03:09;1.70;;;1.60;;
15398;SDS011;7797;51.428;6.756;2023-04-24T15:05:37;3.13;;;1.47;;
15398;SDS011;7797;51.428;6.756;2023-04-24T15:08:04;2.97;;;1.60;;
15398;SDS011;7797;51.428;6.756;2023-04-24T15:10:31;1.70;;;1.53;;
15398;SDS011;7797;51.428;6.756;2023-04-24T15:12:57;2.47;;;1.60;;
15398;SDS011;7797;51.428;6.756;2023-04-24T15:15:24;2.20;;;1.60;;
15398;SDS011;7797;51.428;6.756;2023-04-24T15:17:51;2.67;;;1.70;;